sensor_id;sensor_type;location;lat;lon;timestamp;temperature;humidity
360;DHT22;168;48.872;9.226;2023-09-19T00:00:19;19.80;92.50
360;DHT22;168;48.872;9.226;2023-09-19T00:02:52;19.80;92.70
360;DHT22;168;48.872;9.226;2023-09-19T00:05:20;19.70;93.20
360;DHT22;168;48.872;9.226;2023-09-19T00:07:50;19.60;93.60
360;DHT22;168;48.872;9.226;2023-09-19T00:10:20;19.60;93.80
360;DHT22;168;48.872;9.226;2023-09-19T00:12:52;19.60;93.90
360;DHT22;168;48.872;9.226;2023-09-19T00:15:22;19.70;93.90
360;DHT22;168;48.872;9.226;2023-09-19T00:17:49;19.70;94.10
360;DHT22;168;48.872;9.226;2023-09-19T00:20:18;19.60;94.10
360;DHT22;168;48.872;9.226;2023-09-19T00:22:49;19.60;94.10
360;DHT22;168;48.872;9.226;2023-09-19T00:25:16;19.60;94.20
360;DHT22;168;48.872;9.226;2023-09-19T00:27:44;19.50;94.20
360;DHT22;168;48.872;9.226;2023-09-19T00:30:17;19.50;94.30
360;DHT22;168;48.872;9.226;2023-09-19T00:32:47;19.40;94.40
360;DHT22;168;48.872;9.226;2023-09-19T00:35:15;19.50;94.20
360;DHT22;168;48.872;9.226;2023-09-19T00:37:42;19.50;94.30
360;DHT22;168;48.872;9.226;2023-09-19T00:40:10;19.50;94.20
360;DHT22;168;48.872;9.226;2023-09-19T00:42:39;19.50;94.20
360;DHT22;168;48.872;9.226;2023-09-19T00:45:07;19.50;94.30
360;DHT22;168;48.872;9.226;2023-09-19T00:47:38;19.50;94.30
360;DHT22;168;48.872;9.226;2023-09-19T00:50:08;19.50;94.30
360;DHT22;168;48.872;9.226;2023-09-19T00:52:37;19.40;94.30
360;DHT22;168;48.872;9.226;2023-09-19T00:55:07;19.40;94.40
360;DHT22;168;48.872;9.226;2023-09-19T00:57:35;19.40;94.40
360;DHT22;168;48.872;9.226;2023-09-19T01:00:05;19.40;94.50
360;DHT22;168;48.872;9.226;2023-09-19T01:02:34;19.40;94.40
360;DHT22;168;48.872;9.226;2023-09-19T01:05:05;19.40;94.40
360;DHT22;168;48.872;9.226;2023-09-19T01:07:33;19.40;94.30
360;DHT22;168;48.872;9.226;2023-09-19T01:10:02;19.50;94.30
360;DHT22;168;48.872;9.226;2023-09-19T01:12:45;19.50;94.20
360;DHT22;168;48.872;9.226;2023-09-19T01:15:20;19.50;94.30
360;DHT22;168;48.872;9.226;2023-09-19T01:17:57;19.40;94.20
360;DHT22;168;48.872;9.226;2023-09-19T01:20:37;19.40;94.30
360;DHT22;168;48.872;9.226;2023-09-19T01:23:13;19.40;94.30
360;DHT22;168;48.872;9.226;2023-09-19T01:26:06;19.30;94.50
360;DHT22;168;48.872;9.226;2023-09-19T01:28:43;19.40;94.40
360;DHT22;168;48.872;9.226;2023-09-19T01:31:15;19.40;94.40
360;DHT22;168;48.872;9.226;2023-09-19T01:33:56;19.30;94.60
360;DHT22;168;48.872;9.226;2023-09-19T01:36:27;19.40;94.60
360;DHT22;168;48.872;9.226;2023-09-19T01:38:55;19.30;94.60
360;DHT22;168;48.872;9.226;2023-09-19T01:41:29;19.40;94.40
360;DHT22;168;48.872;9.226;2023-09-19T01:44:00;19.30;94.50
360;DHT22;168;48.872;9.226;2023-09-19T01:46:34;19.20;94.70
360;DHT22;168;48.872;9.226;2023-09-19T01:49:15;19.20;94.80
360;DHT22;168;48.872;9.226;2023-09-19T01:51:51;19.20;94.80
360;DHT22;168;48.872;9.226;2023-09-19T01:54:26;19.10;94.90
360;DHT22;168;48.872;9.226;2023-09-19T01:56:59;19.10;94.70
360;DHT22;168;48.872;9.226;2023-09-19T01:59:35;19.10;94.70
360;DHT22;168;48.872;9.226;2023-09-19T02:02:06;19.00;94.80
360;DHT22;168;48.872;9.226;2023-09-19T02:04:34;19.00;94.90
360;DHT22;168;48.872;9.226;2023-09-19T02:07:02;19.00;94.90
360;DHT22;168;48.872;9.226;2023-09-19T02:09:31;19.00;94.80
360;DHT22;168;48.872;9.226;2023-09-19T02:12:01;19.00;94.80
360;DHT22;168;48.872;9.226;2023-09-19T02:14:32;18.90;94.80
360;DHT22;168;48.872;9.226;2023-09-19T02:17:00;18.80;94.90
360;DHT22;168;48.872;9.226;2023-09-19T02:19:30;18.80;94.90
360;DHT22;168;48.872;9.226;2023-09-19T02:21:59;18.80;94.90
360;DHT22;168;48.872;9.226;2023-09-19T02:24:29;18.70;95.00
360;DHT22;168;48.872;9.226;2023-09-19T02:26:57;18.70;95.10
360;DHT22;168;48.872;9.226;2023-09-19T02:29:26;18.70;95.10
360;DHT22;168;48.872;9.226;2023-09-19T02:31:55;18.70;95.00
360;DHT22;168;48.872;9.226;2023-09-19T02:34:22;18.60;95.10
360;DHT22;168;48.872;9.226;2023-09-19T02:36:53;18.60;95.00
360;DHT22;168;48.872;9.226;2023-09-19T02:39:21;18.50;95.00
360;DHT22;168;48.872;9.226;2023-09-19T02:41:49;18.50;95.10
360;DHT22;168;48.872;9.226;2023-09-19T02:44:17;18.50;95.10
360;DHT22;168;48.872;9.226;2023-09-19T02:46:46;18.50;95.10
360;DHT22;168;48.872;9.226;2023-09-19T02:49:14;18.40;95.10
360;DHT22;168;48.872;9.226;2023-09-19T02:51:43;18.40;95.10
360;DHT22;168;48.872;9.226;2023-09-19T02:54:13;18.40;95.00
360;DHT22;168;48.872;9.226;2023-09-19T02:56:42;18.40;95.00
360;DHT22;168;48.872;9.226;2023-09-19T02:59:09;18.30;95.00
360;DHT22;168;48.872;9.226;2023-09-19T03:01:37;18.40;95.10
360;DHT22;168;48.872;9.226;2023-09-19T03:04:05;18.50;95.10
360;DHT22;168;48.872;9.226;2023-09-19T03:06:35;18.50;95.00
360;DHT22;168;48.872;9.226;2023-09-19T03:09:02;18.50;95.10
360;DHT22;168;48.872;9.226;2023-09-19T03:11:33;18.50;95.00
360;DHT22;168;48.872;9.226;2023-09-19T03:14:01;18.50;95.10
360;DHT22;168;48.872;9.226;2023-09-19T03:16:28;18.50;95.10
360;DHT22;168;48.872;9.226;2023-09-19T03:18:56;18.60;95.10
360;DHT22;168;48.872;9.226;2023-09-19T03:21:24;18.60;95.10
360;DHT22;168;48.872;9.226;2023-09-19T03:23:51;18.60;95.10
360;DHT22;168;48.872;9.226;2023-09-19T03:26:19;18.80;95.00
360;DHT22;168;48.872;9.226;2023-09-19T03:28:48;18.80;94.90
360;DHT22;168;48.872;9.226;2023-09-19T03:31:15;18.70;95.00
360;DHT22;168;48.872;9.226;2023-09-19T03:33:43;18.70;95.00
360;DHT22;168;48.872;9.226;2023-09-19T03:36:11;18.70;95.00
360;DHT22;168;48.872;9.226;2023-09-19T03:38:40;18.80;94.90
360;DHT22;168;48.872;9.226;2023-09-19T03:41:08;18.80;94.90
360;DHT22;168;48.872;9.226;2023-09-19T03:43:35;18.80;95.00
360;DHT22;168;48.872;9.226;2023-09-19T03:46:04;18.80;95.00
360;DHT22;168;48.872;9.226;2023-09-19T03:48:32;18.70;94.90
360;DHT22;168;48.872;9.226;2023-09-19T03:50:59;18.80;95.00
360;DHT22;168;48.872;9.226;2023-09-19T03:53:26;18.70;94.50
360;DHT22;168;48.872;9.226;2023-09-19T03:55:54;18.60;93.90
360;DHT22;168;48.872;9.226;2023-09-19T03:58:21;18.50;92.90
360;DHT22;168;48.872;9.226;2023-09-19T04:00:48;18.50;92.60
360;DHT22;168;48.872;9.226;2023-09-19T04:03:18;18.50;93.00
360;DHT22;168;48.872;9.226;2023-09-19T04:05:46;18.30;91.80
360;DHT22;168;48.872;9.226;2023-09-19T04:08:14;18.20;91.70
360;DHT22;168;48.872;9.226;2023-09-19T04:10:42;17.90;90.10
360;DHT22;168;48.872;9.226;2023-09-19T04:13:11;17.90;90.90
360;DHT22;168;48.872;9.226;2023-09-19T04:15:38;17.70;90.10
360;DHT22;168;48.872;9.226;2023-09-19T04:18:07;17.60;88.10
360;DHT22;168;48.872;9.226;2023-09-19T04:20:37;17.50;86.40
360;DHT22;168;48.872;9.226;2023-09-19T04:23:04;17.40;83.90
360;DHT22;168;48.872;9.226;2023-09-19T04:25:32;17.40;82.60
360;DHT22;168;48.872;9.226;2023-09-19T04:27:59;17.50;84.70
360;DHT22;168;48.872;9.226;2023-09-19T04:30:26;17.60;85.10
360;DHT22;168;48.872;9.226;2023-09-19T04:32:56;17.60;85.00
360;DHT22;168;48.872;9.226;2023-09-19T04:35:23;17.60;84.60
360;DHT22;168;48.872;9.226;2023-09-19T04:37:52;17.60;85.10
360;DHT22;168;48.872;9.226;2023-09-19T04:40:20;17.60;84.80
360;DHT22;168;48.872;9.226;2023-09-19T04:42:58;17.60;84.50
360;DHT22;168;48.872;9.226;2023-09-19T04:45:27;17.70;83.80
360;DHT22;168;48.872;9.226;2023-09-19T04:48:08;17.80;85.50
360;DHT22;168;48.872;9.226;2023-09-19T04:50:56;17.80;85.70
360;DHT22;168;48.872;9.226;2023-09-19T04:54:03;17.90;85.50
360;DHT22;168;48.872;9.226;2023-09-19T04:56:39;17.90;86.60
360;DHT22;168;48.872;9.226;2023-09-19T04:59:25;18.00;88.00
360;DHT22;168;48.872;9.226;2023-09-19T05:01:55;18.00;86.60
360;DHT22;168;48.872;9.226;2023-09-19T05:04:23;18.00;84.50
360;DHT22;168;48.872;9.226;2023-09-19T05:06:51;18.00;84.70
360;DHT22;168;48.872;9.226;2023-09-19T05:09:19;18.00;85.30
360;DHT22;168;48.872;9.226;2023-09-19T05:11:47;18.00;86.20
360;DHT22;168;48.872;9.226;2023-09-19T05:14:15;18.00;85.80
360;DHT22;168;48.872;9.226;2023-09-19T05:16:42;17.90;85.50
360;DHT22;168;48.872;9.226;2023-09-19T05:19:09;17.80;84.70
360;DHT22;168;48.872;9.226;2023-09-19T05:21:38;17.70;82.50
360;DHT22;168;48.872;9.226;2023-09-19T05:24:06;17.70;82.30
360;DHT22;168;48.872;9.226;2023-09-19T05:26:34;17.60;81.40
360;DHT22;168;48.872;9.226;2023-09-19T05:29:02;17.70;81.60
360;DHT22;168;48.872;9.226;2023-09-19T05:31:31;17.80;83.20
360;DHT22;168;48.872;9.226;2023-09-19T05:33:58;17.80;84.00
360;DHT22;168;48.872;9.226;2023-09-19T05:36:27;17.70;82.10
360;DHT22;168;48.872;9.226;2023-09-19T05:38:55;17.50;84.80
360;DHT22;168;48.872;9.226;2023-09-19T05:44:10;17.10;80.40
360;DHT22;168;48.872;9.226;2023-09-19T05:46:37;17.00;78.90
360;DHT22;168;48.872;9.226;2023-09-19T05:49:04;16.90;78.60
360;DHT22;168;48.872;9.226;2023-09-19T05:51:32;16.90;77.40
360;DHT22;168;48.872;9.226;2023-09-19T05:53:59;16.90;76.50
360;DHT22;168;48.872;9.226;2023-09-19T05:56:27;16.90;76.70
360;DHT22;168;48.872;9.226;2023-09-19T05:58:54;16.90;75.80
360;DHT22;168;48.872;9.226;2023-09-19T06:01:23;16.80;76.20
360;DHT22;168;48.872;9.226;2023-09-19T06:03:51;16.90;78.10
360;DHT22;168;48.872;9.226;2023-09-19T06:06:19;16.80;78.50
360;DHT22;168;48.872;9.226;2023-09-19T06:08:46;16.80;79.80
360;DHT22;168;48.872;9.226;2023-09-19T06:11:16;16.60;84.40
360;DHT22;168;48.872;9.226;2023-09-19T06:13:48;16.30;82.80
360;DHT22;168;48.872;9.226;2023-09-19T06:16:24;16.20;81.40
360;DHT22;168;48.872;9.226;2023-09-19T06:18:52;16.10;80.80
360;DHT22;168;48.872;9.226;2023-09-19T06:21:22;16.00;81.00
360;DHT22;168;48.872;9.226;2023-09-19T06:23:49;16.00;80.30
360;DHT22;168;48.872;9.226;2023-09-19T06:26:23;16.00;80.00
360;DHT22;168;48.872;9.226;2023-09-19T06:28:57;16.00;80.80
360;DHT22;168;48.872;9.226;2023-09-19T06:31:27;16.00;80.40
360;DHT22;168;48.872;9.226;2023-09-19T06:34:04;16.10;80.90
360;DHT22;168;48.872;9.226;2023-09-19T06:36:33;16.20;80.60
360;DHT22;168;48.872;9.226;2023-09-19T06:39:01;16.20;81.30
360;DHT22;168;48.872;9.226;2023-09-19T06:41:32;16.30;82.00
360;DHT22;168;48.872;9.226;2023-09-19T06:43:59;16.40;82.90
360;DHT22;168;48.872;9.226;2023-09-19T06:46:28;16.50;83.40
360;DHT22;168;48.872;9.226;2023-09-19T06:48:58;16.60;84.40
360;DHT22;168;48.872;9.226;2023-09-19T06:51:26;16.70;86.40
360;DHT22;168;48.872;9.226;2023-09-19T06:53:54;16.80;86.40
360;DHT22;168;48.872;9.226;2023-09-19T06:56:22;16.90;88.40
360;DHT22;168;48.872;9.226;2023-09-19T06:58:52;17.00;89.00
360;DHT22;168;48.872;9.226;2023-09-19T07:01:19;17.10;91.00
360;DHT22;168;48.872;9.226;2023-09-19T07:03:48;17.10;89.90
360;DHT22;168;48.872;9.226;2023-09-19T07:06:16;17.20;90.00
360;DHT22;168;48.872;9.226;2023-09-19T07:08:45;17.40;90.60
360;DHT22;168;48.872;9.226;2023-09-19T07:11:20;17.60;92.60
360;DHT22;168;48.872;9.226;2023-09-19T07:13:58;17.50;91.20
360;DHT22;168;48.872;9.226;2023-09-19T07:16:28;17.70;92.80
360;DHT22;168;48.872;9.226;2023-09-19T07:18:59;17.80;93.10
360;DHT22;168;48.872;9.226;2023-09-19T07:21:28;17.90;93.90
360;DHT22;168;48.872;9.226;2023-09-19T07:23:59;17.90;94.30
360;DHT22;168;48.872;9.226;2023-09-19T07:29:56;17.90;94.20
360;DHT22;168;48.872;9.226;2023-09-19T07:33:16;17.90;94.20
360;DHT22;168;48.872;9.226;2023-09-19T07:39:01;18.00;94.30
360;DHT22;168;48.872;9.226;2023-09-19T07:41:34;18.00;94.30
360;DHT22;168;48.872;9.226;2023-09-19T07:44:03;18.10;95.20
360;DHT22;168;48.872;9.226;2023-09-19T07:46:31;18.10;95.30
360;DHT22;168;48.872;9.226;2023-09-19T07:48:59;18.10;94.70
360;DHT22;168;48.872;9.226;2023-09-19T07:51:28;18.20;95.10
360;DHT22;168;48.872;9.226;2023-09-19T07:53:55;18.30;94.90
360;DHT22;168;48.872;9.226;2023-09-19T07:56:23;18.30;95.00
360;DHT22;168;48.872;9.226;2023-09-19T07:58:57;18.30;94.80
360;DHT22;168;48.872;9.226;2023-09-19T08:01:29;18.30;95.20
360;DHT22;168;48.872;9.226;2023-09-19T08:03:59;18.30;95.30
360;DHT22;168;48.872;9.226;2023-09-19T08:06:28;18.30;95.20
360;DHT22;168;48.872;9.226;2023-09-19T08:09:00;18.30;95.60
360;DHT22;168;48.872;9.226;2023-09-19T08:11:42;18.30;95.20
360;DHT22;168;48.872;9.226;2023-09-19T08:14:11;18.30;95.10
360;DHT22;168;48.872;9.226;2023-09-19T08:16:40;18.40;95.30
360;DHT22;168;48.872;9.226;2023-09-19T08:19:09;18.40;95.10
360;DHT22;168;48.872;9.226;2023-09-19T08:21:43;18.50;95.40
360;DHT22;168;48.872;9.226;2023-09-19T08:24:17;18.60;95.50
360;DHT22;168;48.872;9.226;2023-09-19T08:26:45;18.70;95.30
360;DHT22;168;48.872;9.226;2023-09-19T08:29:22;18.70;95.10
360;DHT22;168;48.872;9.226;2023-09-19T08:31:54;18.90;95.20
360;DHT22;168;48.872;9.226;2023-09-19T08:34:25;19.00;94.50
360;DHT22;168;48.872;9.226;2023-09-19T08:37:03;19.20;94.50
360;DHT22;168;48.872;9.226;2023-09-19T08:39:35;19.30;94.00
360;DHT22;168;48.872;9.226;2023-09-19T08:42:03;19.40;93.80
360;DHT22;168;48.872;9.226;2023-09-19T08:44:39;19.50;93.80
360;DHT22;168;48.872;9.226;2023-09-19T08:47:34;19.70;93.30
360;DHT22;168;48.872;9.226;2023-09-19T08:53:42;20.00;92.70
360;DHT22;168;48.872;9.226;2023-09-19T08:56:18;20.10;91.50
360;DHT22;168;48.872;9.226;2023-09-19T08:58:51;20.10;90.40
360;DHT22;168;48.872;9.226;2023-09-19T09:01:21;20.10;89.60
360;DHT22;168;48.872;9.226;2023-09-19T09:03:53;20.20;91.20
360;DHT22;168;48.872;9.226;2023-09-19T09:06:21;20.30;90.40
360;DHT22;168;48.872;9.226;2023-09-19T09:08:52;20.40;88.60
360;DHT22;168;48.872;9.226;2023-09-19T09:11:20;20.60;88.40
360;DHT22;168;48.872;9.226;2023-09-19T09:13:49;20.70;85.50
360;DHT22;168;48.872;9.226;2023-09-19T09:16:16;20.70;85.90
360;DHT22;168;48.872;9.226;2023-09-19T09:18:45;20.80;83.70
360;DHT22;168;48.872;9.226;2023-09-19T09:21:17;20.90;82.50
360;DHT22;168;48.872;9.226;2023-09-19T09:23:47;21.00;80.80
360;DHT22;168;48.872;9.226;2023-09-19T09:26:17;21.00;81.20
360;DHT22;168;48.872;9.226;2023-09-19T09:28:51;21.00;79.60
360;DHT22;168;48.872;9.226;2023-09-19T09:31:25;21.10;79.70
360;DHT22;168;48.872;9.226;2023-09-19T09:33:58;21.30;80.80
360;DHT22;168;48.872;9.226;2023-09-19T09:36:38;21.30;79.90
360;DHT22;168;48.872;9.226;2023-09-19T09:39:11;21.40;78.90
360;DHT22;168;48.872;9.226;2023-09-19T09:41:55;21.30;79.40
360;DHT22;168;48.872;9.226;2023-09-19T09:44:42;21.30;78.60
360;DHT22;168;48.872;9.226;2023-09-19T09:47:12;21.30;78.30
360;DHT22;168;48.872;9.226;2023-09-19T09:49:57;21.40;78.10
360;DHT22;168;48.872;9.226;2023-09-19T09:52:44;21.20;77.20
360;DHT22;168;48.872;9.226;2023-09-19T09:55:12;21.10;78.00
360;DHT22;168;48.872;9.226;2023-09-19T10:01:18;21.00;78.40
360;DHT22;168;48.872;9.226;2023-09-19T10:03:47;20.80;78.70
360;DHT22;168;48.872;9.226;2023-09-19T10:06:20;20.80;78.60
360;DHT22;168;48.872;9.226;2023-09-19T10:09:00;20.90;78.50
360;DHT22;168;48.872;9.226;2023-09-19T10:11:41;21.10;78.50
360;DHT22;168;48.872;9.226;2023-09-19T10:14:20;21.10;76.70
360;DHT22;168;48.872;9.226;2023-09-19T10:17:10;21.10;76.90
360;DHT22;168;48.872;9.226;2023-09-19T10:19:54;21.20;74.70
360;DHT22;168;48.872;9.226;2023-09-19T10:22:24;21.20;74.80
360;DHT22;168;48.872;9.226;2023-09-19T10:24:53;21.30;73.60
360;DHT22;168;48.872;9.226;2023-09-19T10:27:26;21.50;74.50
360;DHT22;168;48.872;9.226;2023-09-19T10:30:01;21.80;72.30
360;DHT22;168;48.872;9.226;2023-09-19T10:32:57;21.90;72.50
360;DHT22;168;48.872;9.226;2023-09-19T10:35:31;22.00;71.00
360;DHT22;168;48.872;9.226;2023-09-19T10:38:28;21.90;70.90
360;DHT22;168;48.872;9.226;2023-09-19T10:40:56;21.90;71.90
360;DHT22;168;48.872;9.226;2023-09-19T10:43:29;21.80;70.30
360;DHT22;168;48.872;9.226;2023-09-19T10:46:01;21.70;72.10
360;DHT22;168;48.872;9.226;2023-09-19T10:48:30;21.80;72.10
360;DHT22;168;48.872;9.226;2023-09-19T10:51:02;22.00;72.90
360;DHT22;168;48.872;9.226;2023-09-19T10:53:42;22.40;71.60
360;DHT22;168;48.872;9.226;2023-09-19T10:56:17;22.70;70.80
360;DHT22;168;48.872;9.226;2023-09-19T10:58:46;22.80;68.80
360;DHT22;168;48.872;9.226;2023-09-19T11:01:15;22.90;68.20
360;DHT22;168;48.872;9.226;2023-09-19T11:03:44;22.90;69.10
360;DHT22;168;48.872;9.226;2023-09-19T11:06:17;23.00;68.60
360;DHT22;168;48.872;9.226;2023-09-19T11:08:56;23.10;66.90
360;DHT22;168;48.872;9.226;2023-09-19T11:11:43;23.10;66.80
360;DHT22;168;48.872;9.226;2023-09-19T11:20:21;22.50;68.50
360;DHT22;168;48.872;9.226;2023-09-19T11:23:20;22.60;69.30
360;DHT22;168;48.872;9.226;2023-09-19T11:25:54;22.60;67.90
360;DHT22;168;48.872;9.226;2023-09-19T11:28:29;22.70;67.20
360;DHT22;168;48.872;9.226;2023-09-19T11:30:57;22.60;68.70
360;DHT22;168;48.872;9.226;2023-09-19T11:33:26;22.60;72.00
360;DHT22;168;48.872;9.226;2023-09-19T11:36:00;22.70;72.70
360;DHT22;168;48.872;9.226;2023-09-19T11:38:58;22.60;72.00
360;DHT22;168;48.872;9.226;2023-09-19T11:41:43;22.50;72.50
360;DHT22;168;48.872;9.226;2023-09-19T11:44:34;22.30;72.60
360;DHT22;168;48.872;9.226;2023-09-19T11:47:05;22.10;73.00
360;DHT22;168;48.872;9.226;2023-09-19T11:49:33;22.10;73.30
360;DHT22;168;48.872;9.226;2023-09-19T11:52:04;22.20;72.60
360;DHT22;168;48.872;9.226;2023-09-19T11:54:35;22.40;72.70
360;DHT22;168;48.872;9.226;2023-09-19T11:57:07;22.40;71.80
360;DHT22;168;48.872;9.226;2023-09-19T11:59:38;22.40;72.40
360;DHT22;168;48.872;9.226;2023-09-19T12:02:07;22.40;72.60
360;DHT22;168;48.872;9.226;2023-09-19T12:04:38;22.40;73.30
360;DHT22;168;48.872;9.226;2023-09-19T12:07:07;22.40;72.70
360;DHT22;168;48.872;9.226;2023-09-19T12:09:41;22.30;72.40
360;DHT22;168;48.872;9.226;2023-09-19T12:12:11;22.20;73.20
360;DHT22;168;48.872;9.226;2023-09-19T12:14:48;22.30;72.70
360;DHT22;168;48.872;9.226;2023-09-19T12:17:16;22.20;73.40
360;DHT22;168;48.872;9.226;2023-09-19T12:19:52;22.20;71.00
360;DHT22;168;48.872;9.226;2023-09-19T12:22:20;22.10;71.20
360;DHT22;168;48.872;9.226;2023-09-19T12:24:47;22.00;71.40
360;DHT22;168;48.872;9.226;2023-09-19T12:27:18;22.00;71.30
360;DHT22;168;48.872;9.226;2023-09-19T12:29:46;22.00;70.90
360;DHT22;168;48.872;9.226;2023-09-19T12:32:15;22.00;71.20
360;DHT22;168;48.872;9.226;2023-09-19T12:34:50;22.10;70.90
360;DHT22;168;48.872;9.226;2023-09-19T12:37:18;22.10;69.80
360;DHT22;168;48.872;9.226;2023-09-19T12:39:50;22.20;69.50
360;DHT22;168;48.872;9.226;2023-09-19T12:42:22;22.30;69.20
360;DHT22;168;48.872;9.226;2023-09-19T12:44:50;22.40;69.50
360;DHT22;168;48.872;9.226;2023-09-19T12:47:21;22.60;69.10
360;DHT22;168;48.872;9.226;2023-09-19T12:50:09;22.80;67.10
360;DHT22;168;48.872;9.226;2023-09-19T12:52:45;22.90;66.20
360;DHT22;168;48.872;9.226;2023-09-19T12:55:24;22.90;65.40
360;DHT22;168;48.872;9.226;2023-09-19T12:57:58;23.00;66.70
360;DHT22;168;48.872;9.226;2023-09-19T13:00:33;23.00;66.30
360;DHT22;168;48.872;9.226;2023-09-19T13:03:18;23.20;65.10
360;DHT22;168;48.872;9.226;2023-09-19T13:05:49;23.30;64.70
360;DHT22;168;48.872;9.226;2023-09-19T13:08:20;23.30;64.40
360;DHT22;168;48.872;9.226;2023-09-19T13:11:04;23.30;64.30
360;DHT22;168;48.872;9.226;2023-09-19T13:13:38;23.10;64.40
360;DHT22;168;48.872;9.226;2023-09-19T13:16:05;23.10;64.30
360;DHT22;168;48.872;9.226;2023-09-19T13:18:45;23.10;64.60
360;DHT22;168;48.872;9.226;2023-09-19T13:21:14;23.20;65.10
360;DHT22;168;48.872;9.226;2023-09-19T13:23:51;23.40;64.90
360;DHT22;168;48.872;9.226;2023-09-19T13:26:18;23.40;64.80
360;DHT22;168;48.872;9.226;2023-09-19T13:28:47;23.40;64.40
360;DHT22;168;48.872;9.226;2023-09-19T13:31:15;23.30;63.70
360;DHT22;168;48.872;9.226;2023-09-19T13:33:44;23.20;64.10
360;DHT22;168;48.872;9.226;2023-09-19T13:36:12;23.10;64.20
360;DHT22;168;48.872;9.226;2023-09-19T13:38:40;23.00;64.10
360;DHT22;168;48.872;9.226;2023-09-19T13:41:09;23.00;65.00
360;DHT22;168;48.872;9.226;2023-09-19T13:43:37;23.20;64.80
360;DHT22;168;48.872;9.226;2023-09-19T13:46:06;23.40;65.00
360;DHT22;168;48.872;9.226;2023-09-19T13:48:38;23.60;63.30
360;DHT22;168;48.872;9.226;2023-09-19T13:51:05;23.80;63.00
360;DHT22;168;48.872;9.226;2023-09-19T13:53:32;23.80;63.00
360;DHT22;168;48.872;9.226;2023-09-19T13:56:00;23.80;63.10
360;DHT22;168;48.872;9.226;2023-09-19T13:58:27;23.90;63.10
360;DHT22;168;48.872;9.226;2023-09-19T14:00:56;23.90;63.10
360;DHT22;168;48.872;9.226;2023-09-19T14:03:27;24.30;63.30
360;DHT22;168;48.872;9.226;2023-09-19T14:05:55;24.50;62.50
360;DHT22;168;48.872;9.226;2023-09-19T14:08:22;24.70;61.80
360;DHT22;168;48.872;9.226;2023-09-19T14:10:50;24.70;61.50
360;DHT22;168;48.872;9.226;2023-09-19T14:13:17;24.70;62.50
360;DHT22;168;48.872;9.226;2023-09-19T14:15:46;24.70;61.20
360;DHT22;168;48.872;9.226;2023-09-19T14:18:14;24.60;61.60
360;DHT22;168;48.872;9.226;2023-09-19T14:20:43;24.60;61.00
360;DHT22;168;48.872;9.226;2023-09-19T14:23:10;24.60;62.00
360;DHT22;168;48.872;9.226;2023-09-19T14:25:38;24.80;61.30
360;DHT22;168;48.872;9.226;2023-09-19T14:28:05;25.00;60.70
360;DHT22;168;48.872;9.226;2023-09-19T14:30:34;25.00;61.10
360;DHT22;168;48.872;9.226;2023-09-19T14:33:03;25.00;61.30
360;DHT22;168;48.872;9.226;2023-09-19T14:35:31;25.00;61.70
360;DHT22;168;48.872;9.226;2023-09-19T14:38:00;25.10;61.00
360;DHT22;168;48.872;9.226;2023-09-19T14:40:28;25.10;60.40
360;DHT22;168;48.872;9.226;2023-09-19T14:42:55;25.00;59.60
360;DHT22;168;48.872;9.226;2023-09-19T14:45:22;24.90;60.50
360;DHT22;168;48.872;9.226;2023-09-19T14:47:51;24.80;61.10
360;DHT22;168;48.872;9.226;2023-09-19T14:50:20;24.90;60.90
360;DHT22;168;48.872;9.226;2023-09-19T14:52:48;25.00;60.50
360;DHT22;168;48.872;9.226;2023-09-19T14:55:18;25.00;60.40
360;DHT22;168;48.872;9.226;2023-09-19T14:57:49;25.10;60.10
360;DHT22;168;48.872;9.226;2023-09-19T15:00:18;25.20;60.60
360;DHT22;168;48.872;9.226;2023-09-19T15:02:47;25.40;60.90
360;DHT22;168;48.872;9.226;2023-09-19T15:05:16;25.40;58.60
360;DHT22;168;48.872;9.226;2023-09-19T15:07:43;25.20;58.80
360;DHT22;168;48.872;9.226;2023-09-19T15:10:10;25.20;59.50
360;DHT22;168;48.872;9.226;2023-09-19T15:12:40;25.20;59.30
360;DHT22;168;48.872;9.226;2023-09-19T15:15:08;25.10;59.30
360;DHT22;168;48.872;9.226;2023-09-19T15:17:36;25.00;59.60
360;DHT22;168;48.872;9.226;2023-09-19T15:20:04;25.00;59.70
360;DHT22;168;48.872;9.226;2023-09-19T15:22:32;25.10;58.90
360;DHT22;168;48.872;9.226;2023-09-19T15:25:00;24.90;58.20
360;DHT22;168;48.872;9.226;2023-09-19T15:27:30;24.80;59.10
360;DHT22;168;48.872;9.226;2023-09-19T15:30:00;24.70;59.60
360;DHT22;168;48.872;9.226;2023-09-19T15:32:30;24.70;59.60
360;DHT22;168;48.872;9.226;2023-09-19T15:34:58;24.80;59.50
360;DHT22;168;48.872;9.226;2023-09-19T15:37:27;24.80;59.30
360;DHT22;168;48.872;9.226;2023-09-19T15:39:55;24.80;60.20
360;DHT22;168;48.872;9.226;2023-09-19T15:42:24;24.80;60.40
360;DHT22;168;48.872;9.226;2023-09-19T15:44:51;24.90;60.30
360;DHT22;168;48.872;9.226;2023-09-19T15:47:20;24.90;59.60
360;DHT22;168;48.872;9.226;2023-09-19T15:49:47;25.00;58.00
360;DHT22;168;48.872;9.226;2023-09-19T15:52:17;24.90;58.90
360;DHT22;168;48.872;9.226;2023-09-19T15:54:44;24.90;59.20
360;DHT22;168;48.872;9.226;2023-09-19T15:57:12;24.70;59.50
360;DHT22;168;48.872;9.226;2023-09-19T15:59:40;24.70;59.70
360;DHT22;168;48.872;9.226;2023-09-19T16:02:07;24.60;59.30
360;DHT22;168;48.872;9.226;2023-09-19T16:04:36;24.30;59.40
360;DHT22;168;48.872;9.226;2023-09-19T16:07:04;24.20;60.00
360;DHT22;168;48.872;9.226;2023-09-19T16:09:34;24.00;60.20
360;DHT22;168;48.872;9.226;2023-09-19T16:12:02;24.00;60.40
360;DHT22;168;48.872;9.226;2023-09-19T16:14:29;24.00;60.70
360;DHT22;168;48.872;9.226;2023-09-19T16:16:57;23.80;60.90
360;DHT22;168;48.872;9.226;2023-09-19T16:19:25;23.80;60.90
360;DHT22;168;48.872;9.226;2023-09-19T16:21:54;23.70;61.40
360;DHT22;168;48.872;9.226;2023-09-19T16:24:22;23.80;61.70
360;DHT22;168;48.872;9.226;2023-09-19T16:26:50;23.80;61.40
360;DHT22;168;48.872;9.226;2023-09-19T16:29:18;23.80;61.60
360;DHT22;168;48.872;9.226;2023-09-19T16:31:47;23.80;62.10
360;DHT22;168;48.872;9.226;2023-09-19T16:34:15;23.90;61.70
360;DHT22;168;48.872;9.226;2023-09-19T16:36:43;23.80;62.10
360;DHT22;168;48.872;9.226;2023-09-19T16:39:12;23.90;62.20
360;DHT22;168;48.872;9.226;2023-09-19T16:41:39;23.80;62.40
360;DHT22;168;48.872;9.226;2023-09-19T16:44:07;23.80;62.30
360;DHT22;168;48.872;9.226;2023-09-19T16:46:35;23.80;62.70
360;DHT22;168;48.872;9.226;2023-09-19T16:49:02;23.80;62.70
360;DHT22;168;48.872;9.226;2023-09-19T16:51:31;23.70;62.80
360;DHT22;168;48.872;9.226;2023-09-19T16:53:58;23.70;62.80
360;DHT22;168;48.872;9.226;2023-09-19T16:56:28;23.50;63.90
360;DHT22;168;48.872;9.226;2023-09-19T16:58:58;23.40;63.80
360;DHT22;168;48.872;9.226;2023-09-19T17:01:27;23.30;64.00
360;DHT22;168;48.872;9.226;2023-09-19T17:03:54;23.40;64.10
360;DHT22;168;48.872;9.226;2023-09-19T17:06:23;23.40;64.50
360;DHT22;168;48.872;9.226;2023-09-19T17:08:51;23.30;64.30
360;DHT22;168;48.872;9.226;2023-09-19T17:11:18;23.30;64.50
360;DHT22;168;48.872;9.226;2023-09-19T17:13:50;23.20;64.90
360;DHT22;168;48.872;9.226;2023-09-19T17:16:19;23.20;64.80
360;DHT22;168;48.872;9.226;2023-09-19T17:18:50;23.10;65.20
360;DHT22;168;48.872;9.226;2023-09-19T17:21:19;23.10;65.30